Colorado AWOS List, Phone Numbers, Maps

USA |  
| Search AWOS

Rocky Mountain States: Montana | Wyoming | Colorado | New Mexico

Complete weather reports: Colorado

Legend: KFNL = METAR available Follow your local AWOS on AV Mobile = METAR available on AV Mobile
Station Colorado Location Frequency Phone
KAKOFAA ID AKO, ASOS, KAKO 210353Z AUTO 20007KT 10SM CLR 03/M03 A2993 RMK AO2 SLP136 T00331028 Follow KAKO on AV Mobile COLORADO PLAINS REGIONAL 135.475 970-345-2320
KALSFAA ID ALS, ASOS, KALS 210352Z AUTO 34003KT 10SM CLR 06/M05 A3001 Follow KALS on AV Mobile SAN LUIS VALLEY REGIONAL 135.175 719-589-5669
KASEFAA ID ASE, ASOS, KASE 210353Z AUTO 17005KT 10SM SCT075 BKN095 02/M01 A3005 Follow KASE on AV Mobile ASPEN-PITKIN COUNTY AIRPORT 120.400 970-925-9168
KBKFFAA ID BKF, KBKF 210358Z 18008KT 10SM FEW120 FEW200 05/03 A2998 Follow KBKF on AV Mobile Aurora, Buckley Air Force Base Airport
K7BMFAA ID 7BM, AWOS-3, K7BM 210435Z AUTO 00000KT 10SM SCT034 SCT047 BKN055 00/M03 A3010 RMK AO2 Follow K7BM on AV Mobile Cottonwood Pass 132.050 303-512-4919
KBDUFAA ID BDU, AWOS-3, KBDU 210438Z AUTO 00000KT 10SM CLR 05/02 A2995 RMK AO2 Follow KBDU on AV Mobile Boulder Municipal Airport 118.825 303-541-9540
KAEJFAA ID AEJ, AWOS-3, KAEJ 210435Z AUTO 23007KT 10SM SCT055 SCT065 SCT085 00/M01 A3007 RMK AO2 T00001008 Follow KAEJ on AV Mobile Central Colorado Regional Airport 132.925 719-395-2599
KITRFAA ID ITR, ASOS, KITR 210353Z AUTO 00000KT 10SM BKN095 04/01 A2996 RMK AO2 SLP136 T00440006 Follow KITR on AV Mobile Kit Carson County Airport 135.225 719-346-7036
K1V6FAA ID 1V6, AWOS-3, K1V6 210435Z AUTO 00000KT 10SM CLR 08/03 A3000 RMK AO2 Follow K1V6 on AV Mobile CANON CITY 120.025
KAFFFAA ID AFF, KAFF 210358Z AUTO 00000KT 10SM CLR 04/01 A3001 RMK AO2 SLP151 T00410007 Follow KAFF on AV Mobile Air Force Academy
KCOSFAA ID COS, ASOS, KCOS 210354Z 27005KT 10SM FEW040 FEW080 SCT100 06/02 A3002 Follow KCOS on AV Mobile COLORADO SPRINGS MUNI 125.000 719-637-9696
KFLYFAA ID FLY, AWOS-3PT, KFLY 210435Z AUTO 00000KT 10SM CLR 02/00 A3003 RMK AO2 T00240000 Follow KFLY on AV Mobile Meadowlake Airport, Peyton, CO 118.450 719-683-5371
KCCUFAA ID CCU, AWOS-3, KCCU 201655Z AUTO 28018G31KT SCT016 BKN024 OVC033 M04/M07 A3007 RMK AO2 PWINO Follow KCCU on AV Mobile Copper Mountain, Red Cliff Pass 118.075 970-968-1715
KCEZFAA ID CEZ, ASOS, KCEZ 210353Z AUTO 06006KT 10SM FEW110 05/M02 A2996 RMK AO2 SLP107 T00501022 Follow KCEZ on AV Mobile CORTEZ MONTEZUMA COUNTY AIRPORT 135.625 970-564-0193
KCAGFAA ID CAG, ASOS, KCAG 210353Z AUTO 00000KT 10SM CLR 02/00 A2996 Follow KCAG on AV Mobile CRAIG MOFFAT AIRPORT 135.425 970-824-2373
KAJZFAA ID AJZ, AWOS-3, KAJZ 210435Z AUTO 04009KT 10SM CLR 11/01 A2995 RMK AO2 T01090007 PWINO Follow KAJZ on AV Mobile Blake Field Airport 134.000 970-874-3251
KDNRICAO ID KDNR Denver / Stapleton International, Co.
KAPAFAA ID APA, ASOS, KAPA 210353Z 20007KT 10SM FEW110 SCT220 03/01 A2998 RMK AO2 SLP153 T00330011 Follow KAPA on AV Mobile DENVER CENTENNIAL AIRPORT 120.300 303-706-9098
KDENFAA ID DEN, ASOS, KDEN 210353Z 19009KT 10SM FEW220 06/02 A2996 Follow KDEN on AV Mobile DENVER INTERNATIONAL AIRPORT 125.600 303-342-0838
KFTGFAA ID FTG, AWOS-3, KFTG 210247Z 18006KT 30SM SCT085 07/04 A2997 Follow KFTG on AV Mobile Front Range Airport 119.025 303-261-9104
KBJCFAA ID BJC, AWOS-3, KBJC 210347Z VRB05KT 20SM FEW120 SCT200 05/03 A2997 Follow KBJC on AV Mobile Rocky Mountain Metro Airport 126.250 720-887-8067
K4V5ICAO ID K4V5 Durango Aviation Weather Reporting Station
KDROFAA ID DRO, ASOS, KDRO 210353Z AUTO 02006KT 10SM CLR 07/M06 A2998 RMK AO2 SLP116 T00671056 Follow KDRO on AV Mobile DURANGO-LA PLATA COUNTY AIRPORT 120.625 970-259-3579
KEGEFAA ID EGE, AWOS-3, KEGE 210435Z AUTO 21003KT 10SM FEW095 SCT120 03/02 A3005 Follow KEGE on AV Mobile Eagle County Regional 135.575 970-524-7386
CO90FAA ID CO90, ASOS, KTEX 070640Z AUTO 15005KT 10SM CLR 02/M16 A3038 RMK AO2 T00201164 Follow  on AV Mobile USAF Academy Bullseye Aux Airstrip 118.325 719-683-3346
K0COFAA ID 0CO, AWOS-3, K0CO 210434Z AUTO 30025G33KT 7SM CLR M08/M13 A3008 RMK AO2 Follow K0CO on AV Mobile EMPIRE 134.325
KEIKFAA ID EIK, AWOS-3, KEIK 210435Z AUTO 00000KT 10SM CLR 05/03 A2995 RMK AO2 T00530029 Follow KEIK on AV Mobile Erie Municipal Airport 133.825 303-604-4339
KFCSFAA ID FCS, KFCS 210358Z AUTO 03004KT 10SM FEW055 07/01 A3000 RMK AO2 RAE04RAB07E08DZB08E09RAB09E19DZB19E23 SLP166 P0000 T00730012 $ Follow KFCS on AV Mobile Fort Carson
KFCLICAO ID KFCL Fort Collins Supplementary Aviation Weather Reporting Station
KFNLFAA ID FNL, AWOS-3, KFNL 210435Z AUTO 00000KT 10SM CLR 06/01 A2997 RMK AO1 Follow KFNL on AV Mobile Fort Collins/Loveland, Fort Collins-Loveland Municipal Airport 135.075 970-669-9187
KFMMFAA ID FMM, AWOS-3, KFMM 210435Z AUTO 28004KT 10SM CLR 05/M03 A2994 RMK AO2 T00481030 Follow KFMM on AV Mobile Fort Morgan Municipal Airport 132.950 970-867-4823
KGNBFAA ID GNB, AWOS-1 Granby-Grand County Airport 119.925 970-887-1803
KGJTFAA ID GJT, ASOS, KGJT 210353Z AUTO 07005KT 10SM CLR 10/04 A2989 Follow KGJT on AV Mobile GRAND JUNCTION WALKER FIELD 118.550 970-245-7881
KGXYFAA ID GXY, AWOS-3, KGXY 210435Z 34004KT 10SM CLR 06/M02 A2996 RMK AO1 Follow KGXY on AV Mobile Greeley, Greeley-Weld County Airport 135.175 970-352-3511
K2V9ICAO ID K2V9 Gunnison Aviation Weather Reporting Station
KGUCFAA ID GUC, AWOS-3, KGUC 210435Z 32005KT 10SM CLR 02/M04 A3008 RMK AO1 Follow KGUC on AV Mobile Gunnison, Gunnison-Crested Butte Regional Airport 135.075 970-641-3240
KHDNFAA ID HDN, AWOS-3, KHDN 210435Z AUTO 09010KT 10SM CLR 04/M01 A2997 RMK AO1 Follow KHDN on AV Mobile Hayden, Yampa Valley Airport 119.275 970-276-3690
KHEQFAA ID HEQ, AWOS-3, KHEQ 210435Z AUTO 26007KT 10SM CLR 03/00 A2991 RMK AO2 Follow KHEQ on AV Mobile Holyoke Airport 119.275 970-854-3679
K20VFAA ID 20V, AWOS-3, K20V 210435Z AUTO 00000KT 10SM CLR 01/M02 A3004 RMK AO2 Follow K20V on AV Mobile Kremmling, Mc Elroy Airfield 118.425 970-724-9659
KLHXFAA ID LHX, ASOS, KLHX 210353Z AUTO 03004KT 10SM CLR 11/02 A2996 RMK AO2 SLP122 T01060022 Follow KLHX on AV Mobile LA JUNTA MUNICIPAL AIRPORT 135.525 719-384-5961
KVTPFAA ID VTP, AWOS-3, KVTP 210433Z AUTO 34004KT 5SM BR BKN001 M01/M02 A3010 RMK AO2 Follow KVTP on AV Mobile La Veta Mountain, La Veta Pass 119.925 719-587-3120
KLAAFAA ID LAA, ASOS, KLAA 210353Z AUTO 11006KT 10SM OVC110 10/03 A2993 RMK AO2 SLP123 T01000028 Follow KLAA on AV Mobile LAMAR MUNICIPAL AIRPORT 135.625 719-336-3854
KLXVFAA ID LXV, ASOS, KLXV 210402Z AUTO 15003KT 10SM SCT012 SCT020 M04/M05 A3009 Follow KLXV on AV Mobile LEADVILLE LAKE CO 118.375 719-486-2735
KLICFAA ID LIC, ASOS, KLIC 210355Z AUTO 00000KT 10SM CLR 03/M01 A2998 RMK AO2 SLP146 T00281011 Follow KLIC on AV Mobile LIMON MUNICIPAL AIRPORT 121.125 719-775-0515
KLMOFAA ID LMO, AWOS-3, KLMO 210435Z AUTO 32003KT 10SM CLR 05/02 A2997 RMK AO2 T00460016 Follow KLMO on AV Mobile Vance Brand Airport 120.000 303-684-7545
KEEOFAA ID EEO, ASOS, KEEO 210353Z AUTO 04009KT 10SM CLR 07/01 A2997 RMK AO2 SLP113 T00670006 Follow KEEO on AV Mobile MEEKER AIRPORT 135.525 970-878-5036
KMYPFAA ID MYP, AWOS-3, KMYP 210435Z AUTO 10SM CLR M05/M08 A3024 RMK AO2 Follow KMYP on AV Mobile Salida Mountain, Monarch Pass 124.175 719-539-4436
KMTJFAA ID MTJ, ASOS, KMTJ 210353Z AUTO 14007KT 10SM CLR 09/03 A2997 RMK AO2 SLP113 T00890028 Follow KMTJ on AV Mobile MONTROSE REGIONAL AIRPORT 135.225 970-249-1534
KMNHFAA ID MNH, AWOS-3, KMNH 210436Z AUTO 20007KT 10SM CLR 00/00 A3000 RMK AO2 Follow KMNH on AV Mobile Elbert Mountain, Monument Pass 134.375 303-648-3479
K3MWFAA ID 3MW, AWOS-3, K3MW 211630Z AUTO RMK AO2 TSNO PWINO Follow K3MW on AV Mobile Mount Werner 127.125 970-871-5640
KCRVICAO ID KCRV Nederland Mountain, Corona Pass
KAIBFAA ID AIB, AWOS-3, KAIB 210435Z AUTO 10009KT 10SM CLR 08/M01 A3000 RMK AO2 Follow KAIB on AV Mobile Hopkins Field Airport 132.525 970-864-2325
KPSOFAA ID PSO, AWOS-3, KPSO 210435Z AUTO 00000KT 10SM CLR 03/M07 A3003 RMK AO2 T00291068 Follow KPSO on AV Mobile Stevens Field Airport 127.175 970-731-0365
KPEFICAO ID KPEF Peterson Air Force Base
KPUXICAO ID KPUX Pueblo NEXRAD
KPUBFAA ID PUB, ASOS, KPUB 210353Z AUTO 34007KT 10SM SCT050 BKN070 OVC080 11/03 A2999 Follow KPUB on AV Mobile PUEBLO MEMORIAL AIRPORT 125.250 719-948-2803
K1V1ICAO ID K1V1 Rifle Aviation Weather Reporting Station
KRILFAA ID RIL, ASOS, KRIL 210353Z AUTO 11008KT 10SM CLR 09/01 A2996 RMK AO2 SLP119 T00890006 Follow KRIL on AV Mobile RIFLE GARFIELD COUNTY RGNL 135.275 970-625-2206
K04VFAA ID 04V, AWOS-3, K04V 210434Z AUTO 31008KT 10SM CLR 02/M02 A3005 RMK AO2 Follow K04V on AV Mobile Saguache, Saguache Municipal Airport 118.625 719-655-2229
KS29ICAO ID KS29 Salida
KANKFAA ID ANK, AWOS-3, KANK 210435Z AUTO 33007KT 10SM SCT090 04/00 A3014 RMK AO1 T00430000 Follow KANK on AV Mobile Harriet Alexander Field Airport 133.850 719-539-5268
KSPDICAO ID KSPD, KSPD 210356Z AUTO 21004KT 07/04 A2996 RMK AO1 SLP126 T00670039 Follow KSPD on AV Mobile SPRINGFIELD COMANCHE NATL
KSBSFAA ID SBS, AWOS-3, KSBS 210435Z AUTO 09006KT 10SM CLR 03/M02 A2999 RMK AO1 T00271017 Follow KSBS on AV Mobile Steamboat Springs 118.325 970-879-7794
KSTKFAA ID STK, AWOS-3, KSTK 210430Z AUTO 00000KT 10SM CLR 02/00 A2991 RMK AO2 Follow KSTK on AV Mobile Sterling Municipal Airport 118.525 970-526-3009
K5SMFAA ID 5SM, AWOS-3, K5SM 210433Z AUTO 00000KT 10SM SCT055 SCT070 00/M03 A3015 RMK AO2 Follow K5SM on AV Mobile Sunlight 126.075 970-384-3380
KTEXFAA ID TEX, AWOS-3, KTEX 210435Z AUTO 12005KT 10SM CLR 03/M06 A3010 RMK AO2 T00321060 Follow KTEX on AV Mobile Telluride, Telluride Regional Airport 118.325 970-728-1534
KTADFAA ID TAD, ASOS, KTAD 210354Z AUTO 03006KT 10SM FEW075 07/02 A2998 RMK AO2 SLP120 T00720022 Follow KTAD on AV Mobile Trinidad, Perry Stokes Airport 119.025 719-845-1156
K33VFAA ID 33V, AWOS-3, K33V 210436Z AUTO 11004KT 10SM SCT085 M02/M05 A3001 RMK AO2 Follow K33V on AV Mobile WALDEN 118.625 970-723-4513
4V1FAA ID 4V1, AWOS-3, KTEX 070640Z AUTO 15005KT 10SM CLR 02/M16 A3038 RMK AO2 T00201164 Follow  on AV Mobile Spanish Peaks Airfield 123.600 719-738-1053
K4BMFAA ID 4BM, AWOS-3, K4BM 210437Z AUTO 30007KT 270V350 10SM BKN110 M04/M06 A3012 RMK AO2 Follow K4BM on AV Mobile Wilkerson Pass 132.3 303-512-4418
KC96ICAO ID KC96 Winter Park Resort
KCPWFAA ID CPW, AWOS-3, KCPW 210437Z AUTO 30005KT 10SM CLR M02/M11 A3020 RMK AO2 Follow KCPW on AV Mobile Pagosa Springs, Wolf Creek Pass 121.125 970-264-2180
K2V5FAA ID 2V5, AWOS-3, K2V5 210435Z AUTO 24005KT 10SM CLR 05/M01 A2991 RMK AO2 T00461015 Follow K2V5 on AV Mobile Wray Municipal Airport 118.250 970-332-5930

Click on the AV Mobile icon AV Mobile icon by any station to follow that AWOS feed on AirportView.net Mobile.

Legend: Commercial service airport with AWOS Commercial Airport AWOSNon-Commercial service airport with AWOS Non-Commercial Airport AWOS
Airport AWOS - Click symbol for weather report Fort Morgan Municipal Airport KFMM 210435Z AUTO 28004KT 10SM CLR 05/M03 A2994 RMK AO2 T00481030 Hopkins Field Airport KAIB 210435Z AUTO 10009KT 10SM CLR 08/M01 A3000 RMK AO2 Telluride, Telluride Regional Airport KTEX 210435Z AUTO 12005KT 10SM CLR 03/M06 A3010 RMK AO2 T00321060 Greeley, Greeley-Weld County Airport KGXY 210435Z 34004KT 10SM CLR 06/M02 A2996 RMK AO1 Front Range Airport KFTG 210247Z 18006KT 30SM SCT085 07/04 A2997 Rocky Mountain Metro Airport KBJC 210347Z VRB05KT 20SM FEW120 SCT200 05/03 A2997 DENVER CENTENNIAL AIRPORT KAPA 210353Z 20007KT 10SM FEW110 SCT220 03/01 A2998 RMK AO2 SLP153 T00330011 DENVER INTERNATIONAL AIRPORT KDEN 210353Z 19009KT 10SM FEW220 06/02 A2996 Fort Collins/Loveland, Fort Collins-Loveland Municipal Airport KFNL 210435Z AUTO 00000KT 10SM CLR 06/01 A2997 RMK AO1 Boulder Municipal Airport KBDU 210438Z AUTO 00000KT 10SM CLR 05/02 A2995 RMK AO2 Vance Brand Airport KLMO 210435Z AUTO 32003KT 10SM CLR 05/02 A2997 RMK AO2 T00460016 Sterling Municipal Airport KSTK 210430Z AUTO 00000KT 10SM CLR 02/00 A2991 RMK AO2 Holyoke Airport KHEQ 210435Z AUTO 26007KT 10SM CLR 03/00 A2991 RMK AO2 COLORADO PLAINS REGIONAL KAKO 210353Z AUTO 20007KT 10SM CLR 03/M03 A2993 RMK AO2 SLP136 T00331028 Kit Carson County Airport KITR 210353Z AUTO 00000KT 10SM BKN095 04/01 A2996 RMK AO2 SLP136 T00440006 LIMON MUNICIPAL AIRPORT KLIC 210355Z AUTO 00000KT 10SM CLR 03/M01 A2998 RMK AO2 SLP146 T00281011 COLORADO SPRINGS MUNI KCOS 210354Z 27005KT 10SM FEW040 FEW080 SCT100 06/02 A3002 LAMAR MUNICIPAL AIRPORT KLAA 210353Z AUTO 11006KT 10SM OVC110 10/03 A2993 RMK AO2 SLP123 T01000028 LA JUNTA MUNICIPAL AIRPORT KLHX 210353Z AUTO 03004KT 10SM CLR 11/02 A2996 RMK AO2 SLP122 T01060022 Trinidad, Perry Stokes Airport KTAD 210354Z AUTO 03006KT 10SM FEW075 07/02 A2998 RMK AO2 SLP120 T00720022 PUEBLO MEMORIAL AIRPORT KPUB 210353Z AUTO 34007KT 10SM SCT050 BKN070 OVC080 11/03 A2999 CANON CITY 1V6 SAN LUIS VALLEY REGIONAL KALS 210352Z AUTO 34003KT 10SM CLR 06/M05 A3001 Saguache, Saguache Municipal Airport K04V 210434Z AUTO 31008KT 10SM CLR 02/M02 A3005 RMK AO2 Granby-Grand County Airport KGNB WALDEN 33V Steamboat Springs KSBS 210435Z AUTO 09006KT 10SM CLR 03/M02 A2999 RMK AO1 T00271017 Hayden, Yampa Valley Airport KHDN 210435Z AUTO 09010KT 10SM CLR 04/M01 A2997 RMK AO1 Kremmling, Mc Elroy Airfield K20V 210435Z AUTO 00000KT 10SM CLR 01/M02 A3004 RMK AO2 LEADVILLE LAKE CO KLXV 210402Z AUTO 15003KT 10SM SCT012 SCT020 M04/M05 A3009 Eagle County Regional KEGE 210435Z AUTO 21003KT 10SM FEW095 SCT120 03/02 A3005 CRAIG MOFFAT AIRPORT KCAG 210353Z AUTO 00000KT 10SM CLR 02/00 A2996 MEEKER AIRPORT KEEO 210353Z AUTO 04009KT 10SM CLR 07/01 A2997 RMK AO2 SLP113 T00670006 ASPEN-PITKIN COUNTY AIRPORT KASE 210353Z AUTO 17005KT 10SM SCT075 BKN095 02/M01 A3005 Gunnison, Gunnison-Crested Butte Regional Airport KGUC 210435Z 32005KT 10SM CLR 02/M04 A3008 RMK AO1 DURANGO-LA PLATA COUNTY AIRPORT  KDRO 210353Z AUTO 02006KT 10SM CLR 07/M06 A2998 RMK AO2 SLP116 T00671056 Stevens Field Airport KPSO 210435Z AUTO 00000KT 10SM CLR 03/M07 A3003 RMK AO2 T00291068 CORTEZ MONTEZUMA COUNTY AIRPORT  KCEZ 210353Z AUTO 06006KT 10SM FEW110 05/M02 A2996 RMK AO2 SLP107 T00501022 MONTROSE REGIONAL AIRPORT KMTJ 210353Z AUTO 14007KT 10SM CLR 09/03 A2997 RMK AO2 SLP113 T00890028 RIFLE GARFIELD COUNTY RGNL KRIL 210353Z AUTO 11008KT 10SM CLR 09/01 A2996 RMK AO2 SLP119 T00890006 GRAND JUNCTION WALKER FIELD KGJT 210353Z AUTO 07005KT 10SM CLR 10/04 A2989 Blake Field Airport KAJZ 210435Z AUTO 04009KT 10SM CLR 11/01 A2995 RMK AO2 T01090007 PWINO Central Colorado Regional Airport KAEJ 210435Z AUTO 23007KT 10SM SCT055 SCT065 SCT085 00/M01 A3007 RMK AO2 T00001008 Harriet Alexander Field Airport KANK 210435Z AUTO 33007KT 10SM SCT090 04/00 A3014 RMK AO1 T00430000 Erie Municipal Airport KEIK 210435Z AUTO 00000KT 10SM CLR 05/03 A2995 RMK AO2 T00530029 Wray Municipal Airport K2V5 210435Z AUTO 24005KT 10SM CLR 05/M01 A2991 RMK AO2 T00461015
Legend: High Mountain AWOS Mountain Pass AWOS
Mountain Pass AWOS - Click symbol for weather report Pagosa Springs, Wolf Creek Pass KCPW 210437Z AUTO 30005KT 10SM CLR M02/M11 A3020 RMK AO2 Saguache, Saguache Municipal Airport K04V 210434Z AUTO 31008KT 10SM CLR 02/M02 A3005 RMK AO2 Kremmling, Mc Elroy Airfield K20V 210435Z AUTO 00000KT 10SM CLR 01/M02 A3004 RMK AO2 La Veta Mountain, La Veta Pass KVTP 210433Z AUTO 34004KT 5SM BR BKN001 M01/M02 A3010 RMK AO2 Salida Mountain, Monarch Pass KMYP 210435Z AUTO 10SM CLR M05/M08 A3024 RMK AO2 Cottonwood Pass K7BM 210435Z AUTO 00000KT 10SM SCT034 SCT047 BKN055 00/M03 A3010 RMK AO2 Elbert Mountain, Monument Pass KMNH 210436Z AUTO 20007KT 10SM CLR 00/00 A3000 RMK AO2 Wilkerson Pass K4BM 210437Z AUTO 30007KT 270V350 10SM BKN110 M04/M06 A3012 RMK AO2 Copper Mountain, Red Cliff Pass KCCU 201655Z AUTO 28018G31KT SCT016 BKN024 OVC033 M04/M07 A3007 RMK AO2 PWINO EMPIRE 0CO Sunlight K5SM 210433Z AUTO 00000KT 10SM SCT055 SCT070 00/M03 A3015 RMK AO2 Mount Werner K3MW 211630Z AUTO RMK AO2 TSNO PWINO
Garmin aera 796 $1999 at Avionics Specialists LLC
Bose A20 Aviation Headsets $995 at Avionics Specialists LLC